createdAt,value
2018-09-02T00:00:22.114Z,65.0
2018-09-02T00:01:22.788Z,65.2
2018-09-02T00:02:23.461Z,64.8
2018-09-02T00:03:24.133Z,65.1
2018-09-02T00:04:24.810Z,65.3
2018-09-02T00:05:25.482Z,65.2
2018-09-02T00:06:26.156Z,65.0
2018-09-02T00:07:26.827Z,64.8
2018-09-02T00:08:27.501Z,65.0
2018-09-02T00:09:28.176Z,64.9
2018-09-02T00:10:28.849Z,64.7
2018-09-02T00:11:29.524Z,64.7
2018-09-02T00:12:30.196Z,64.4
2018-09-02T00:13:30.876Z,64.5
2018-09-02T00:14:31.603Z,64.3
2018-09-02T00:15:32.318Z,64.5
2018-09-02T00:16:32.990Z,64.1
2018-09-02T00:17:33.668Z,64.3
2018-09-02T00:18:34.338Z,63.8
2018-09-02T00:19:35.013Z,64.0
2018-09-02T00:20:35.702Z,64.0
2018-09-02T00:21:36.409Z,63.8
2018-09-02T00:22:37.082Z,63.9
2018-09-02T00:23:37.757Z,63.8
2018-09-02T00:24:38.430Z,64.1
2018-09-02T00:25:39.102Z,64.2
2018-09-02T00:26:39.777Z,64.3
2018-09-02T00:27:40.450Z,64.0
2018-09-02T00:28:41.124Z,63.5
2018-09-02T00:29:41.798Z,63.4
2018-09-02T00:30:42.469Z,63.4
2018-09-02T00:31:43.143Z,63.8
2018-09-02T00:32:43.817Z,63.5
2018-09-02T00:33:44.528Z,63.7
2018-09-02T00:34:45.164Z,63.8
2018-09-02T00:35:45.836Z,63.7
2018-09-02T00:36:46.511Z,63.6
2018-09-02T00:37:47.185Z,63.6
2018-09-02T00:38:47.889Z,63.6
2018-09-02T00:39:48.575Z,63.7
2018-09-02T00:40:49.248Z,63.5
2018-09-02T00:41:49.924Z,63.6
2018-09-02T00:42:50.597Z,63.3
2018-09-02T00:43:51.271Z,63.3
2018-09-02T00:44:51.944Z,63.2
2018-09-02T00:45:52.617Z,63.5
2018-09-02T00:46:53.292Z,63.6
2018-09-02T00:47:53.966Z,63.3
2018-09-02T00:48:54.639Z,63.2
2018-09-02T00:49:55.361Z,63.4
2018-09-02T00:50:56.036Z,63.1
2018-09-02T00:51:56.752Z,63.2
2018-09-02T00:52:57.428Z,63.1
2018-09-02T00:53:58.100Z,63.3
2018-09-02T00:54:58.772Z,63.3
2018-09-02T00:55:59.448Z,63.3
2018-09-02T00:57:00.121Z,63.3
2018-09-02T00:58:00.794Z,63.2
2018-09-02T00:59:01.468Z,63.3
2018-09-02T01:00:02.190Z,63.5
2018-09-02T01:01:02.864Z,63.3
2018-09-02T01:02:03.536Z,63.1
2018-09-02T01:03:04.211Z,63.3
2018-09-02T01:04:04.885Z,63.4
2018-09-02T01:05:05.602Z,63.3
2018-09-02T01:06:06.277Z,63.3
2018-09-02T01:07:06.950Z,63.3
2018-09-02T01:08:07.624Z,63.5
2018-09-02T01:09:08.297Z,63.4
2018-09-02T01:10:08.972Z,63.3
2018-09-02T01:11:09.645Z,63.3
2018-09-02T01:12:10.320Z,63.4
2018-09-02T01:13:10.992Z,63.0
2018-09-02T01:14:11.667Z,63.0
2018-09-02T01:15:12.383Z,63.3
2018-09-02T01:16:13.056Z,63.5
2018-09-02T01:17:13.734Z,63.3
2018-09-02T01:18:14.404Z,63.3
2018-09-02T01:19:15.078Z,63.5
2018-09-02T01:20:15.752Z,63.8
2018-09-02T01:21:16.475Z,63.7
2018-09-02T01:22:17.148Z,64.0
2018-09-02T01:23:17.822Z,64.3
2018-09-02T01:24:18.497Z,63.8
2018-09-02T01:25:19.170Z,64.0
2018-09-02T01:26:19.845Z,63.9
2018-09-02T01:27:20.518Z,64.6
2018-09-02T01:28:21.191Z,64.8
2018-09-02T01:29:21.865Z,65.0
2018-09-02T01:30:22.539Z,64.7
2018-09-02T01:31:23.254Z,64.7
2018-09-02T01:32:23.972Z,65.0
2018-09-02T01:33:24.689Z,65.0
2018-09-02T01:34:25.368Z,65.0
2018-09-02T01:35:26.035Z,65.1
2018-09-02T01:36:26.709Z,65.1
2018-09-02T01:37:27.381Z,65.2
2018-09-02T01:38:28.055Z,65.1
2018-09-02T01:39:28.729Z,64.9
2018-09-02T01:40:29.563Z,65.1
2018-09-02T01:41:30.259Z,65.1
2018-09-02T01:42:30.934Z,65.2
2018-09-02T01:43:31.608Z,65.3
2018-09-02T01:44:32.284Z,65.2
2018-09-02T01:45:33.007Z,65.1
2018-09-02T01:46:33.680Z,65.1
2018-09-02T01:47:34.353Z,65.2
2018-09-02T01:48:35.075Z,64.9
2018-09-02T01:49:35.761Z,64.9
2018-09-02T01:50:36.415Z,65.1
2018-09-02T01:51:37.092Z,65.0
2018-09-02T01:52:37.809Z,65.0
2018-09-02T01:53:38.482Z,65.0
2018-09-02T01:54:39.155Z,65.1
2018-09-02T01:55:39.828Z,64.9
2018-09-02T01:56:40.502Z,65.0
2018-09-02T01:57:41.176Z,65.0
2018-09-02T01:58:41.889Z,65.0
2018-09-02T01:59:42.564Z,65.0
2018-09-02T02:00:43.263Z,64.8
2018-09-02T02:01:43.912Z,65.4
2018-09-02T02:02:44.584Z,65.2
2018-09-02T02:03:45.259Z,65.5
2018-09-02T02:04:45.930Z,65.8
2018-09-02T02:05:46.603Z,65.6
2018-09-02T02:06:47.277Z,66.1
2018-09-02T02:07:47.950Z,66.4
2018-09-02T02:08:48.674Z,66.2
2018-09-02T02:09:49.296Z,66.4
2018-09-02T02:10:49.969Z,66.4
2018-09-02T02:11:50.649Z,66.4
2018-09-02T02:12:51.316Z,66.2
2018-09-02T02:13:51.991Z,66.0
2018-09-02T02:14:52.664Z,66.1
2018-09-02T02:15:53.339Z,66.4
2018-09-02T02:16:54.057Z,66.0
2018-09-02T02:17:54.727Z,66.1
2018-09-02T02:18:55.400Z,66.2
2018-09-02T02:19:56.073Z,66.0
2018-09-02T02:20:56.751Z,66.2
2018-09-02T02:21:57.422Z,66.3
2018-09-02T02:22:58.094Z,66.3
2018-09-02T02:23:58.767Z,66.0
2018-09-02T02:24:59.482Z,66.0
2018-09-02T02:26:00.156Z,66.7
2018-09-02T02:27:00.831Z,66.1
2018-09-02T02:28:01.506Z,66.8
2018-09-02T02:29:02.178Z,66.5
2018-09-02T02:30:02.852Z,66.5
2018-09-02T02:31:03.524Z,66.6
2018-09-02T02:32:04.199Z,66.6
2018-09-02T02:33:04.872Z,66.7
2018-09-02T02:34:05.545Z,67.0
2018-09-02T02:35:06.222Z,66.4
2018-09-02T02:36:06.935Z,66.6
2018-09-02T02:37:07.617Z,66.5
2018-09-02T02:38:08.300Z,66.6
2018-09-02T02:39:09.030Z,66.5
2018-09-02T02:40:09.703Z,66.6
2018-09-02T02:41:10.376Z,66.9
2018-09-02T02:42:11.090Z,67.1
2018-09-02T02:43:11.766Z,67.2
2018-09-02T02:44:12.480Z,66.9
2018-09-02T02:45:13.155Z,67.3
2018-09-02T02:46:13.828Z,67.4
2018-09-02T02:47:14.501Z,67.4
2018-09-02T02:48:15.177Z,67.4
2018-09-02T02:49:15.849Z,67.8
2018-09-02T02:50:16.523Z,67.6
2018-09-02T02:51:17.195Z,68.1
2018-09-02T02:52:17.867Z,67.9
2018-09-02T02:53:18.542Z,68.0
2018-09-02T02:54:19.215Z,68.3
2018-09-02T02:55:19.887Z,68.5
2018-09-02T02:56:20.612Z,68.5
2018-09-02T02:57:21.277Z,68.8
2018-09-02T02:58:21.952Z,69.1
2018-09-02T02:59:22.624Z,69.4
2018-09-02T03:00:23.299Z,69.5
2018-09-02T03:01:23.973Z,69.3
2018-09-02T03:02:24.645Z,69.2
2018-09-02T03:03:25.377Z,69.4
2018-09-02T03:04:26.048Z,69.2
2018-09-02T03:05:26.721Z,69.2
2018-09-02T03:06:27.397Z,69.1
2018-09-02T03:07:28.129Z,69.5
2018-09-02T03:08:28.802Z,68.8
2018-09-02T03:09:29.479Z,69.1
2018-09-02T03:10:30.153Z,69.0
2018-09-02T03:11:30.828Z,69.2
2018-09-02T03:12:31.502Z,68.9
2018-09-02T03:13:32.175Z,68.9
2018-09-02T03:14:32.852Z,68.9
2018-09-02T03:15:33.529Z,69.0
2018-09-02T03:16:34.241Z,68.9
2018-09-02T03:17:34.914Z,69.1
2018-09-02T03:18:35.641Z,69.0
2018-09-02T03:19:36.318Z,69.4
2018-09-02T03:20:36.993Z,69.2
2018-09-02T03:21:37.715Z,69.5
2018-09-02T03:22:38.389Z,69.5
2018-09-02T03:23:39.063Z,69.5
2018-09-02T03:24:39.778Z,69.5
2018-09-02T03:25:40.452Z,69.6
2018-09-02T03:26:41.135Z,69.5
2018-09-02T03:27:41.845Z,69.6
2018-09-02T03:28:42.559Z,69.3
2018-09-02T03:29:43.234Z,69.8
2018-09-02T03:30:43.956Z,69.2
2018-09-02T03:31:44.631Z,69.5
2018-09-02T03:32:45.302Z,69.4
2018-09-02T03:33:45.977Z,69.6
2018-09-02T03:34:46.648Z,69.8
2018-09-02T03:35:47.324Z,69.7
2018-09-02T03:36:47.997Z,69.8
2018-09-02T03:37:48.671Z,69.6
2018-09-02T03:38:49.343Z,70.0
2018-09-02T03:39:50.017Z,69.8
2018-09-02T03:40:50.691Z,70.1
2018-09-02T03:41:51.364Z,70.0
2018-09-02T03:42:52.038Z,70.0
2018-09-02T03:43:52.710Z,70.2
2018-09-02T03:44:53.384Z,70.0
2018-09-02T03:45:54.060Z,70.1
2018-09-02T03:46:54.775Z,70.1
2018-09-02T03:47:55.449Z,70.2
2018-09-02T03:48:56.121Z,70.6
2018-09-02T03:49:56.794Z,69.9
2018-09-02T03:50:57.469Z,70.4
2018-09-02T03:51:58.143Z,70.3
2018-09-02T03:52:58.818Z,70.3
2018-09-02T03:53:59.490Z,70.4
2018-09-02T03:55:00.163Z,70.4
2018-09-02T03:56:00.837Z,70.5
2018-09-02T03:57:01.510Z,70.1
2018-09-02T03:58:02.183Z,70.1
2018-09-02T03:59:02.857Z,70.4
2018-09-02T04:00:03.529Z,70.5
2018-09-02T04:01:04.204Z,70.3
2018-09-02T04:02:04.876Z,70.1
2018-09-02T04:03:05.550Z,70.6
2018-09-02T04:04:06.229Z,70.3
2018-09-02T04:05:06.896Z,70.3
2018-09-02T04:06:07.570Z,70.1
2018-09-02T04:07:08.244Z,70.2
2018-09-02T04:08:08.917Z,70.1
2018-09-02T04:09:09.591Z,70.0
2018-09-02T04:10:10.265Z,70.1
2018-09-02T04:11:10.969Z,70.3
2018-09-02T04:12:11.612Z,70.5
2018-09-02T04:13:12.287Z,70.6
2018-09-02T04:14:12.960Z,70.2
2018-09-02T04:15:13.633Z,70.2
2018-09-02T04:16:14.310Z,70.3
2018-09-02T04:17:15.024Z,70.2
2018-09-02T04:18:15.741Z,70.1
2018-09-02T04:19:16.415Z,70.2
2018-09-02T04:20:17.089Z,70.2
2018-09-02T04:21:17.763Z,70.1
2018-09-02T04:22:18.436Z,70.2
2018-09-02T04:23:19.111Z,70.2
2018-09-02T04:24:19.782Z,70.3
2018-09-02T04:25:20.457Z,70.2
2018-09-02T04:26:21.134Z,70.2
2018-09-02T04:27:21.807Z,70.6
2018-09-02T04:28:22.481Z,70.3
2018-09-02T04:29:23.155Z,70.3
2018-09-02T04:30:23.833Z,70.2
2018-09-02T04:31:24.508Z,70.3
2018-09-02T04:32:25.183Z,70.3
2018-09-02T04:33:25.857Z,70.1
2018-09-02T04:34:26.561Z,70.5
2018-09-02T04:35:27.249Z,70.4
2018-09-02T04:36:27.925Z,70.0
2018-09-02T04:37:28.599Z,70.3
2018-09-02T04:38:29.282Z,70.4
2018-09-02T04:39:29.950Z,70.6
2018-09-02T04:40:30.626Z,70.9
2018-09-02T04:41:31.303Z,70.3
2018-09-02T04:42:31.975Z,70.5
2018-09-02T04:43:32.652Z,70.1
2018-09-02T04:44:33.326Z,70.3
2018-09-02T04:45:34.043Z,70.2
2018-09-02T04:46:34.717Z,70.6
2018-09-02T04:47:35.395Z,70.5
2018-09-02T04:48:36.072Z,70.3
2018-09-02T04:49:36.741Z,70.4
2018-09-02T04:50:37.415Z,70.3
2018-09-02T04:51:38.091Z,70.2
2018-09-02T04:52:38.766Z,70.2
2018-09-02T04:53:39.443Z,70.1
2018-09-02T04:54:40.115Z,70.1
2018-09-02T04:55:40.789Z,70.1
2018-09-02T04:56:41.467Z,70.2
2018-09-02T04:57:42.139Z,70.2
2018-09-02T04:58:42.815Z,70.2
2018-09-02T04:59:43.489Z,70.1
2018-09-02T05:00:44.165Z,70.2
2018-09-02T05:01:44.840Z,70.3
2018-09-02T05:02:45.515Z,70.1
2018-09-02T05:03:46.191Z,70.9
2018-09-02T05:04:46.872Z,71.3
2018-09-02T05:05:47.545Z,72.1
2018-09-02T05:06:48.220Z,72.6
2018-09-02T05:07:48.935Z,72.7
2018-09-02T05:08:49.611Z,72.7
2018-09-02T05:09:50.285Z,73.3
2018-09-02T05:10:50.960Z,73.0
2018-09-02T05:11:51.635Z,73.2
2018-09-02T05:12:52.313Z,73.0
2018-09-02T05:13:52.989Z,72.7
2018-09-02T05:14:53.665Z,72.9
2018-09-02T05:15:54.340Z,73.0
2018-09-02T05:16:55.018Z,72.7
2018-09-02T05:17:55.693Z,72.9
2018-09-02T05:18:56.369Z,73.1
2018-09-02T05:19:57.045Z,73.3
2018-09-02T05:20:57.722Z,73.1
2018-09-02T05:21:58.440Z,72.6
2018-09-02T05:22:59.116Z,72.7
2018-09-02T05:23:59.791Z,72.8
2018-09-02T05:25:00.468Z,72.8
2018-09-02T05:26:01.143Z,72.4
2018-09-02T05:27:01.818Z,72.7
2018-09-02T05:28:02.494Z,72.3
2018-09-02T05:29:03.171Z,72.1
2018-09-02T05:30:03.846Z,72.2
2018-09-02T05:31:04.528Z,71.7
2018-09-02T05:32:05.242Z,71.5
2018-09-02T05:33:05.919Z,71.6
2018-09-02T05:34:06.596Z,71.7
2018-09-02T05:35:07.270Z,71.7
2018-09-02T05:36:07.948Z,71.8
2018-09-02T05:37:08.663Z,71.9
2018-09-02T05:38:09.340Z,71.8
2018-09-02T05:39:10.058Z,71.7
2018-09-02T05:40:10.739Z,71.7
2018-09-02T05:41:11.453Z,71.7
2018-09-02T05:42:12.131Z,71.7
2018-09-02T05:43:12.807Z,71.6
2018-09-02T05:44:13.485Z,71.8
2018-09-02T05:45:14.162Z,71.7
2018-09-02T05:46:14.839Z,71.8
2018-09-02T05:47:15.515Z,71.6
2018-09-02T05:48:16.193Z,72.1
2018-09-02T05:49:16.870Z,72.0
2018-09-02T05:50:17.546Z,71.8
2018-09-02T05:51:18.225Z,72.4
2018-09-02T05:52:18.905Z,72.1
2018-09-02T05:53:19.622Z,72.2
2018-09-02T05:54:20.300Z,72.4
2018-09-02T05:55:20.979Z,72.7
2018-09-02T05:56:21.652Z,72.7
2018-09-02T05:57:22.329Z,73.0
2018-09-02T05:58:23.050Z,73.7
2018-09-02T05:59:23.726Z,73.6
2018-09-02T06:00:24.408Z,73.0
2018-09-02T06:01:25.080Z,73.5
2018-09-02T06:02:25.759Z,74.1
2018-09-02T06:03:26.435Z,74.0
2018-09-02T06:04:27.115Z,73.8
2018-09-02T06:05:27.792Z,74.0
2018-09-02T06:06:28.467Z,74.1
2018-09-02T06:07:29.144Z,73.9
2018-09-02T06:08:29.821Z,73.7
2018-09-02T06:09:30.500Z,74.5
2018-09-02T06:10:31.175Z,74.5
2018-09-02T06:11:31.896Z,74.4
2018-09-02T06:12:32.573Z,74.2
2018-09-02T06:13:33.249Z,74.2
2018-09-02T06:14:33.930Z,74.2
2018-09-02T06:15:34.604Z,74.4
2018-09-02T06:16:35.281Z,74.4
2018-09-02T06:17:35.958Z,74.5
2018-09-02T06:18:36.634Z,74.7
2018-09-02T06:19:37.312Z,74.1
2018-09-02T06:20:37.988Z,74.1
2018-09-02T06:21:38.666Z,74.2
2018-09-02T06:22:39.344Z,74.0
2018-09-02T06:23:40.063Z,73.7
2018-09-02T06:24:40.740Z,73.6
2018-09-02T06:25:41.417Z,73.7
2018-09-02T06:26:42.095Z,73.2
2018-09-02T06:27:42.777Z,72.8
2018-09-02T06:28:43.491Z,72.9
2018-09-02T06:29:44.169Z,73.4
2018-09-02T06:30:44.847Z,72.8
2018-09-02T06:31:45.525Z,73.1
2018-09-02T06:32:46.238Z,73.1
2018-09-02T06:33:46.882Z,73.1
2018-09-02T06:34:47.561Z,73.1
2018-09-02T06:35:48.279Z,73.0
2018-09-02T06:36:48.959Z,72.8
2018-09-02T06:37:49.637Z,72.7
2018-09-02T06:38:50.315Z,72.7
2018-09-02T06:39:50.993Z,72.8
2018-09-02T06:40:51.671Z,72.5
2018-09-02T06:41:52.349Z,72.4
2018-09-02T06:42:53.031Z,72.2
2018-09-02T06:43:53.705Z,72.4
2018-09-02T06:44:54.385Z,72.5
2018-09-02T06:45:55.105Z,72.4
2018-09-02T06:46:55.849Z,71.8
2018-09-02T06:47:56.548Z,72.2
2018-09-02T06:48:57.228Z,71.8
2018-09-02T06:49:57.906Z,72.0
2018-09-02T06:50:58.584Z,71.1
2018-09-02T06:51:59.263Z,71.1
2018-09-02T06:52:59.943Z,71.6
2018-09-02T06:54:00.621Z,71.2
2018-09-02T06:55:01.341Z,71.1
2018-09-02T06:56:02.021Z,71.2
2018-09-02T06:57:02.699Z,70.7
2018-09-02T06:58:03.377Z,70.9
2018-09-02T06:59:04.099Z,70.6
2018-09-02T07:00:04.776Z,70.9
2018-09-02T07:01:05.455Z,70.6
2018-09-02T07:02:06.132Z,70.4
2018-09-02T07:03:06.812Z,70.3
2018-09-02T07:04:07.492Z,70.3
2018-09-02T07:05:08.170Z,70.2
2018-09-02T07:06:08.849Z,70.3
2018-09-02T07:07:09.536Z,70.3
2018-09-02T07:08:10.239Z,70.5
2018-09-02T07:09:10.917Z,70.3
2018-09-02T07:10:11.598Z,70.3
2018-09-02T07:11:12.276Z,70.4
2018-09-02T07:12:12.954Z,70.4
2018-09-02T07:13:13.637Z,70.2
2018-09-02T07:14:14.326Z,70.1
2018-09-02T07:15:15.035Z,69.9
2018-09-02T07:16:15.715Z,70.0
2018-09-02T07:17:16.394Z,70.2
2018-09-02T07:18:17.074Z,70.3
2018-09-02T07:19:17.750Z,70.5
2018-09-02T07:20:18.429Z,70.6
2018-09-02T07:21:19.108Z,70.3
2018-09-02T07:22:19.788Z,70.7
2018-09-02T07:23:20.467Z,70.7
2018-09-02T07:24:21.194Z,70.7
2018-09-02T07:25:21.868Z,70.8
2018-09-02T07:26:22.549Z,71.3
2018-09-02T07:27:23.228Z,71.4
2018-09-02T07:28:23.907Z,72.0
2018-09-02T07:29:24.602Z,71.7
2018-09-02T07:30:25.309Z,72.0
2018-09-02T07:31:26.021Z,71.8
2018-09-02T07:32:26.667Z,72.0
2018-09-02T07:33:27.354Z,72.0
2018-09-02T07:34:28.067Z,72.8
2018-09-02T07:35:28.747Z,72.7
2018-09-02T07:36:29.432Z,73.1
2018-09-02T07:37:30.105Z,74.0
2018-09-02T07:38:30.786Z,74.1
2018-09-02T07:39:31.505Z,74.4
2018-09-02T07:40:32.185Z,74.9
2018-09-02T07:41:32.863Z,75.2
2018-09-02T07:42:33.542Z,75.9
2018-09-02T07:43:34.244Z,77.1
2018-09-02T07:44:34.899Z,77.2
2018-09-02T07:45:35.581Z,77.7
2018-09-02T07:46:36.259Z,77.7
2018-09-02T07:47:36.940Z,77.8
2018-09-02T07:48:37.618Z,77.6
2018-09-02T07:49:38.296Z,78.0
2018-09-02T07:50:38.979Z,77.6
2018-09-02T07:51:39.733Z,78.9
2018-09-02T07:52:40.420Z,79.6
2018-09-02T07:53:41.100Z,79.9
2018-09-02T07:54:41.782Z,80.3
2018-09-02T07:55:42.456Z,79.8
2018-09-02T07:56:43.134Z,79.5
2018-09-02T07:57:43.813Z,79.9
2018-09-02T07:58:44.492Z,80.1
2018-09-02T07:59:45.178Z,80.7
2018-09-02T08:00:45.858Z,80.0
2018-09-02T08:01:46.536Z,79.4
2018-09-02T08:02:47.295Z,79.6
2018-09-02T08:03:47.929Z,80.3
2018-09-02T08:04:48.608Z,81.5
2018-09-02T08:05:49.287Z,81.8
2018-09-02T08:06:49.965Z,82.0
2018-09-02T08:07:50.644Z,81.6
2018-09-02T08:08:51.322Z,81.8
2018-09-02T08:09:52.001Z,82.6
2018-09-02T08:10:52.681Z,83.0
2018-09-02T08:11:53.452Z,83.1
2018-09-02T08:12:54.284Z,83.2
2018-09-02T08:13:54.808Z,83.2
2018-09-02T08:14:55.486Z,83.2
2018-09-02T08:15:56.166Z,83.4
2018-09-02T08:16:56.849Z,83.8
2018-09-02T08:17:57.554Z,83.2
2018-09-02T08:18:58.250Z,83.6
2018-09-02T08:19:59.048Z,83.5
2018-09-02T08:20:59.652Z,83.5
2018-09-02T08:22:00.332Z,83.9
2018-09-02T08:23:01.013Z,83.1
2018-09-02T08:24:01.693Z,83.2
2018-09-02T08:25:02.374Z,82.8
2018-09-02T08:26:03.054Z,82.6
2018-09-02T08:27:03.733Z,82.0
2018-09-02T08:28:04.413Z,81.6
2018-09-02T08:29:05.095Z,81.4
2018-09-02T08:30:05.774Z,81.2
2018-09-02T08:31:06.453Z,81.3
2018-09-02T08:32:07.132Z,80.8
2018-09-02T08:33:07.901Z,80.4
2018-09-02T08:34:08.491Z,80.3
2018-09-02T08:35:09.173Z,79.6
2018-09-02T08:36:09.893Z,80.4
2018-09-02T08:37:10.572Z,79.7
2018-09-02T08:38:11.252Z,79.8
2018-09-02T08:39:11.996Z,79.9
2018-09-02T08:40:12.611Z,80.3
2018-09-02T08:41:13.290Z,79.7
2018-09-02T08:42:14.013Z,79.6
2018-09-02T08:43:14.692Z,79.7
2018-09-02T08:44:15.380Z,80.3
2018-09-02T08:45:16.084Z,80.1
2018-09-02T08:46:16.764Z,79.5
2018-09-02T08:47:17.444Z,80.3
2018-09-02T08:48:18.122Z,80.4
2018-09-02T08:49:18.806Z,80.2
2018-09-02T08:50:19.570Z,79.8
2018-09-02T08:51:20.203Z,80.3
2018-09-02T08:52:20.888Z,80.5
2018-09-02T08:53:21.568Z,81.3
2018-09-02T08:54:22.276Z,81.5
2018-09-02T08:55:23.006Z,81.6
2018-09-02T08:56:23.690Z,82.0
2018-09-02T08:57:24.369Z,82.9
2018-09-02T08:58:25.091Z,83.5
2018-09-02T08:59:25.772Z,83.5
2018-09-02T09:00:26.452Z,83.7
2018-09-02T09:01:27.131Z,83.5
2018-09-02T09:02:27.812Z,84.8
2018-09-02T09:03:28.491Z,84.8
2018-09-02T09:04:29.170Z,85.7
2018-09-02T09:05:29.850Z,85.0
2018-09-02T09:06:30.529Z,85.4
2018-09-02T09:07:31.271Z,85.4
2018-09-02T09:08:32.317Z,86.2
2018-09-02T09:09:32.566Z,86.2
2018-09-02T09:10:33.287Z,86.3
2018-09-02T09:11:33.965Z,87.3
2018-09-02T09:12:34.645Z,87.9
2018-09-02T09:13:35.325Z,87.7
2018-09-02T09:14:36.008Z,87.0
2018-09-02T09:15:36.727Z,87.6
2018-09-02T09:16:37.419Z,87.1
2018-09-02T09:17:38.090Z,87.6
2018-09-02T09:18:38.806Z,87.8
2018-09-02T09:19:39.485Z,88.5
2018-09-02T09:20:40.163Z,88.2
2018-09-02T09:21:40.908Z,88.5
2018-09-02T09:22:41.603Z,88.4
2018-09-02T09:23:42.234Z,88.1
2018-09-02T09:24:42.921Z,88.8
2018-09-02T09:25:43.609Z,88.0
2018-09-02T09:26:44.287Z,88.3
2018-09-02T09:27:45.015Z,88.4
2018-09-02T09:28:45.730Z,88.5
2018-09-02T09:29:46.413Z,88.8
2018-09-02T09:30:47.131Z,88.9
2018-09-02T09:31:47.810Z,88.8
2018-09-02T09:32:48.489Z,88.9
2018-09-02T09:33:49.167Z,88.7
2018-09-02T09:34:49.846Z,88.7
2018-09-02T09:35:50.531Z,88.4
2018-09-02T09:36:51.205Z,89.1
2018-09-02T09:37:51.884Z,89.0
2018-09-02T09:38:52.564Z,89.6
2018-09-02T09:39:53.241Z,89.4
2018-09-02T09:40:53.921Z,89.6
2018-09-02T09:41:54.600Z,89.6
2018-09-02T09:42:55.278Z,90.4
2018-09-02T09:43:56.000Z,90.1
2018-09-02T09:44:56.720Z,90.2
2018-09-02T09:45:57.469Z,90.2
2018-09-02T09:46:58.078Z,90.9
2018-09-02T09:47:58.807Z,90.5
2018-09-02T09:48:59.483Z,90.5
2018-09-02T09:50:00.163Z,91.4
2018-09-02T09:51:00.844Z,91.6
2018-09-02T09:52:01.521Z,92.5
2018-09-02T09:53:02.247Z,93.2
2018-09-02T09:54:02.965Z,93.3
2018-09-02T09:55:03.643Z,93.3
2018-09-02T09:56:04.320Z,93.7
2018-09-02T09:57:05.002Z,93.7
2018-09-02T09:58:05.701Z,93.0
2018-09-02T09:59:06.403Z,93.3
2018-09-02T10:00:07.082Z,93.4
2018-09-02T10:01:07.761Z,93.7
2018-09-02T10:02:08.441Z,93.9
2018-09-02T10:03:09.122Z,93.5
2018-09-02T10:04:09.845Z,94.0
2018-09-02T10:05:10.520Z,93.5
2018-09-02T10:06:11.200Z,94.0
2018-09-02T10:07:11.878Z,93.9
2018-09-02T10:08:12.556Z,94.1
2018-09-02T10:09:13.238Z,93.4
2018-09-02T10:10:13.955Z,93.9
2018-09-02T10:11:14.635Z,94.4
2018-09-02T10:12:15.329Z,93.5
2018-09-02T10:13:16.035Z,94.3
2018-09-02T10:14:16.713Z,93.9
2018-09-02T10:15:17.391Z,94.0
2018-09-02T10:16:18.070Z,94.2
2018-09-02T10:17:18.828Z,94.4
2018-09-02T10:18:19.427Z,93.6
2018-09-02T10:19:20.110Z,94.0
2018-09-02T10:20:20.787Z,93.9
2018-09-02T10:21:21.464Z,93.5
2018-09-02T10:22:22.143Z,93.5
2018-09-02T10:23:22.821Z,93.8
2018-09-02T10:24:23.499Z,94.2
2018-09-02T10:25:24.177Z,94.3
2018-09-02T10:26:24.857Z,94.2
2018-09-02T10:27:25.582Z,94.4
2018-09-02T10:28:26.251Z,93.4
2018-09-02T10:29:26.929Z,93.6
2018-09-02T10:30:27.607Z,93.5
2018-09-02T10:31:28.286Z,93.7
2018-09-02T10:32:28.967Z,94.3
2018-09-02T10:33:29.792Z,93.3
2018-09-02T10:34:30.367Z,94.8
2018-09-02T10:35:31.047Z,96.5
2018-09-02T10:36:31.726Z,95.8
2018-09-02T10:37:32.447Z,95.6
2018-09-02T10:38:33.126Z,95.4
2018-09-02T10:39:33.807Z,96.1
2018-09-02T10:40:34.485Z,95.2
2018-09-02T10:41:35.232Z,95.7
2018-09-02T10:42:35.843Z,95.6
2018-09-02T10:43:36.565Z,96.1
2018-09-02T10:44:37.286Z,96.6
2018-09-02T10:45:37.966Z,96.9
2018-09-02T10:46:38.644Z,97.2
2018-09-02T10:47:39.324Z,96.9
2018-09-02T10:48:40.004Z,96.9
2018-09-02T10:49:40.749Z,97.4
2018-09-02T10:50:41.361Z,97.3
2018-09-02T10:51:42.081Z,97.5
2018-09-02T10:52:42.775Z,97.4
2018-09-02T10:53:43.485Z,97.3
2018-09-02T10:54:44.165Z,97.2
2018-09-02T10:55:44.888Z,97.4
2018-09-02T10:56:45.568Z,96.7
2018-09-02T10:57:46.290Z,97.6
2018-09-02T10:58:47.012Z,98.1
2018-09-02T10:59:47.692Z,97.9
2018-09-02T11:00:48.371Z,98.2
2018-09-02T11:01:49.095Z,98.2
2018-09-02T11:02:49.776Z,98.3
2018-09-02T11:03:50.456Z,98.3
2018-09-02T11:04:51.176Z,98.1
2018-09-02T11:05:51.871Z,97.7
2018-09-02T11:06:52.583Z,98.0
2018-09-02T11:07:53.299Z,97.8
2018-09-02T11:08:53.983Z,97.4
2018-09-02T11:09:54.754Z,97.4
2018-09-02T11:10:55.432Z,98.1
2018-09-02T11:11:56.112Z,97.4
2018-09-02T11:12:56.940Z,97.9
2018-09-02T11:13:57.712Z,98.1
2018-09-02T11:14:58.219Z,98.0
2018-09-02T11:15:58.916Z,98.0
2018-09-02T11:16:59.595Z,98.5
2018-09-02T11:18:00.274Z,97.9
2018-09-02T11:19:00.977Z,97.9
2018-09-02T11:20:01.676Z,97.2
2018-09-02T11:21:02.359Z,97.3
2018-09-02T11:22:03.080Z,97.4
2018-09-02T11:23:03.757Z,97.9
2018-09-02T11:24:04.438Z,98.0
2018-09-02T11:25:05.138Z,98.3
2018-09-02T11:26:05.839Z,98.7
2018-09-02T11:27:06.560Z,98.5
2018-09-02T11:28:07.239Z,98.6
2018-09-02T11:29:07.969Z,98.6
2018-09-02T11:30:08.641Z,99.0
2018-09-02T11:31:09.321Z,98.6
2018-09-02T11:32:10.008Z,98.7
2018-09-02T11:33:10.826Z,99.0
2018-09-02T11:34:11.531Z,98.7
2018-09-02T11:35:12.219Z,98.3
2018-09-02T11:36:12.900Z,98.6
2018-09-02T11:37:13.579Z,99.0
2018-09-02T11:38:14.256Z,98.7
2018-09-02T11:39:14.949Z,99.0
2018-09-02T11:40:15.724Z,99.0
2018-09-02T11:41:16.376Z,98.5
2018-09-02T11:42:17.051Z,99.3
2018-09-02T11:43:17.784Z,99.5
2018-09-02T11:44:18.505Z,99.6
2018-09-02T11:45:19.184Z,99.6
2018-09-02T11:46:19.862Z,99.9
2018-09-02T11:47:20.546Z,99.2
2018-09-02T11:48:21.228Z,99.7
2018-09-02T11:49:21.965Z,99.4
2018-09-02T11:50:22.668Z,99.7
2018-09-02T11:51:23.348Z,99.6
2018-09-02T11:52:24.028Z,99.6
2018-09-02T11:53:24.708Z,99.7
2018-09-02T11:54:25.390Z,99.6
2018-09-02T11:55:26.065Z,99.8
2018-09-02T11:56:26.745Z,99.9
2018-09-02T11:57:27.468Z,100.0
2018-09-02T11:58:28.172Z,100.0
2018-09-02T11:59:28.872Z,100.0
2018-09-02T12:00:29.550Z,100.0
2018-09-02T12:01:30.230Z,100.0
2018-09-02T12:02:30.911Z,100.0
2018-09-02T12:03:31.592Z,100.0
2018-09-02T12:04:32.271Z,100.0
2018-09-02T12:05:33.042Z,100.0
2018-09-02T12:06:33.677Z,100.0
2018-09-02T12:07:34.357Z,100.0
2018-09-02T12:08:35.036Z,100.0
2018-09-02T12:09:35.729Z,100.0
2018-09-02T12:10:36.439Z,100.0
2018-09-02T12:11:37.183Z,100.0
2018-09-02T12:12:37.845Z,100.0
2018-09-02T12:13:38.560Z,100.0
2018-09-02T12:14:39.331Z,100.0
2018-09-02T12:15:39.921Z,100.0
2018-09-02T12:16:40.599Z,100.0
2018-09-02T12:17:41.280Z,100.0
2018-09-02T12:18:41.960Z,100.0
2018-09-02T12:19:42.640Z,100.0
2018-09-02T12:20:43.371Z,100.0
2018-09-02T12:21:44.092Z,100.0
2018-09-02T12:22:44.773Z,100.0
2018-09-02T12:23:45.487Z,100.0
2018-09-02T12:24:46.174Z,100.0
2018-09-02T12:25:46.855Z,100.0
2018-09-02T12:26:47.535Z,100.0
2018-09-02T12:27:48.215Z,100.0
2018-09-02T12:28:48.895Z,100.0
2018-09-02T12:29:49.636Z,100.0
2018-09-02T12:30:50.356Z,100.0
2018-09-02T12:31:51.069Z,100.0
2018-09-02T12:32:51.792Z,100.0
2018-09-02T12:33:52.486Z,100.0
2018-09-02T12:34:53.194Z,100.0
2018-09-02T12:35:53.874Z,100.0
2018-09-02T12:36:54.553Z,100.0
2018-09-02T12:37:55.259Z,100.0
2018-09-02T12:38:55.984Z,100.0
2018-09-02T12:39:56.681Z,100.0
2018-09-02T12:40:57.358Z,100.0
2018-09-02T12:41:58.038Z,100.0
2018-09-02T12:42:58.718Z,100.0
2018-09-02T12:43:59.397Z,100.0
2018-09-02T12:45:00.079Z,100.0
2018-09-02T12:46:00.799Z,100.0
2018-09-02T12:47:01.488Z,100.0
2018-09-02T12:48:02.251Z,100.0
2018-09-02T12:49:02.895Z,100.0
2018-09-02T12:50:03.610Z,100.0
2018-09-02T12:51:04.289Z,100.0
2018-09-02T12:52:05.010Z,100.0
2018-09-02T12:53:05.689Z,100.0
2018-09-02T12:54:06.407Z,100.0
2018-09-02T12:55:07.208Z,100.0
2018-09-02T12:56:07.812Z,100.0
2018-09-02T12:57:08.534Z,100.0
2018-09-02T12:58:09.256Z,100.0
2018-09-02T12:59:09.936Z,100.0
2018-09-02T13:00:10.708Z,100.0
2018-09-02T13:01:11.412Z,100.0
2018-09-02T13:02:12.104Z,100.0
2018-09-02T13:03:12.795Z,100.0
2018-09-02T13:04:13.476Z,100.0
2018-09-02T13:05:14.186Z,100.0
2018-09-02T13:06:14.899Z,100.0
2018-09-02T13:07:15.602Z,100.0
2018-09-02T13:08:16.282Z,100.0
2018-09-02T13:09:16.976Z,100.0
2018-09-02T13:10:17.687Z,100.0
2018-09-02T13:11:18.367Z,100.0
2018-09-02T13:12:19.045Z,100.0
2018-09-02T13:13:19.767Z,100.0
2018-09-02T13:14:20.449Z,100.0
2018-09-02T13:15:21.161Z,100.0
2018-09-02T13:16:21.820Z,100.0
2018-09-02T13:17:22.546Z,100.0
2018-09-02T13:18:23.254Z,100.0
2018-09-02T13:19:23.934Z,100.0
2018-09-02T13:20:24.613Z,100.0
2018-09-02T13:21:25.296Z,100.0
2018-09-02T13:22:25.972Z,100.0
2018-09-02T13:23:26.653Z,100.0
2018-09-02T13:24:27.424Z,100.0